Time;durP1;ratioP1;P1;durP2;ratioP2;P2;SDS_P1;SDS_P2;PMS_P1;PMS_P2;Temp;Humidity;BMP_temperature;BMP_pressure;BME280_temperature;BME280_humidity;BME280_pressure;Samples;Min_cycle;Max_cycle;Signal;HPM_P1;HPM_P2
2023/07/09 00:01:49;;;;;;;5.25;2.97;;;;;;;15.35;100.00;93577.59;5081891;28;20052;-77
2023/07/09 00:04:17;;;;;;;6.72;2.92;;;;;;;15.39;100.00;93575.31;5084109;28;20826;-78
2023/07/09 00:06:45;;;;;;;4.70;2.97;;;;;;;15.36;100.00;93586.91;5076986;28;20045;-77
2023/07/09 00:09:14;;;;;;;5.28;2.95;;;;;;;15.26;100.00;93579.75;5074284;28;20105;-77
2023/07/09 00:11:41;;;;;;;6.55;3.22;;;;;;;15.20;100.00;93576.28;5081911;28;20047;-77
2023/07/09 00:14:10;;;;;;;5.20;3.20;;;;;;;15.06;100.00;93575.75;5078205;28;20064;-77
2023/07/09 00:16:37;;;;;;;5.50;3.03;;;;;;;14.91;100.00;93575.44;5072881;28;20546;-78
2023/07/09 00:19:04;;;;;;;6.18;3.42;;;;;;;14.93;100.00;93568.22;5070430;28;20118;-77
2023/07/09 00:21:34;;;;;;;5.95;3.25;;;;;;;15.01;100.00;93570.47;5079317;28;20044;-78
2023/07/09 00:24:04;;;;;;;5.20;3.63;;;;;;;15.04;100.00;93571.81;5072229;28;20048;-77
2023/07/09 00:26:31;;;;;;;4.68;3.20;;;;;;;15.01;100.00;93586.00;5069358;28;20048;-78
2023/07/09 00:28:58;;;;;;;5.88;2.75;;;;;;;15.00;100.00;93570.69;5067222;28;20098;-78
2023/07/09 00:31:26;;;;;;;6.10;3.20;;;;;;;14.97;100.00;93574.53;5066875;28;20309;-78
2023/07/09 00:33:55;;;;;;;5.43;3.22;;;;;;;14.93;100.00;93579.38;5066694;28;20056;-78
2023/07/09 00:36:28;;;;;;;4.45;3.03;;;;;;;14.88;100.00;93576.69;5073774;28;20047;-78
2023/07/09 00:38:59;;;;;;;5.88;3.50;;;;;;;14.84;100.00;93565.22;5076151;28;20044;-77
2023/07/09 00:41:28;;;;;;;6.30;3.22;;;;;;;14.87;100.00;93575.13;5071385;28;20106;-78
2023/07/09 00:43:54;;;;;;;4.85;2.97;;;;;;;14.81;100.00;93573.41;5088499;28;20048;-78
2023/07/09 00:47:00;;;;;;;7.05;3.45;;;;;;;14.86;100.00;93572.75;5088850;28;20059;-78
2023/07/09 00:49:33;;;;;;;6.10;3.45;;;;;;;14.78;100.00;93571.28;5073397;28;20125;-78
2023/07/09 00:52:02;;;;;;;5.25;3.30;;;;;;;14.79;100.00;93568.47;5078971;28;20456;-77
2023/07/09 00:54:36;;;;;;;5.32;3.60;;;;;;;14.77;100.00;93567.13;5073971;28;20044;-78
2023/07/09 00:57:07;;;;;;;5.28;3.20;;;;;;;14.72;100.00;93562.59;5075222;28;20561;-78
2023/07/09 00:59:34;;;;;;;4.97;3.42;;;;;;;14.70;100.00;93560.25;5074730;28;20094;-78
2023/07/09 01:02:01;;;;;;;5.20;3.30;;;;;;;14.65;100.00;93552.38;5069727;28;20577;-78
2023/07/09 01:04:29;;;;;;;7.47;3.55;;;;;;;14.61;100.00;93561.59;5080956;28;20525;-77
2023/07/09 01:06:57;;;;;;;6.05;3.40;;;;;;;14.59;100.00;93562.84;5074142;28;20052;-77
2023/07/09 01:09:25;;;;;;;4.38;2.95;;;;;;;14.57;100.00;93555.31;5074872;28;20403;-77
2023/07/09 01:11:56;;;;;;;3.58;2.78;;;;;;;14.55;100.00;93558.09;5073753;28;20122;-77
2023/07/09 01:14:25;;;;;;;5.10;3.38;;;;;;;14.42;100.00;93556.56;5070655;28;20133;-77
2023/07/09 01:16:57;;;;;;;5.50;3.03;;;;;;;14.42;100.00;93542.84;5077170;28;20123;-77
2023/07/09 01:19:26;;;;;;;4.47;3.00;;;;;;;14.41;100.00;93549.03;5078109;28;20048;-77
2023/07/09 01:21:56;;;;;;;4.82;3.40;;;;;;;14.14;100.00;93515.88;5072751;28;20403;-78
2023/07/09 01:25:01;;;;;;;5.28;3.50;;;;;;;14.37;100.00;93547.88;5071331;28;20139;-79
2023/07/09 01:27:31;;;;;;;4.82;3.40;;;;;;;14.35;100.00;93548.09;5068852;28;20059;-77
2023/07/09 01:29:59;;;;;;;6.63;3.13;;;;;;;14.37;100.00;93543.53;5086130;28;20052;-78
2023/07/09 01:32:26;;;;;;;4.05;3.20;;;;;;;14.27;100.00;93543.28;5078555;28;20099;-78
2023/07/09 01:34:55;;;;;;;4.90;2.85;;;;;;;14.22;100.00;93546.56;5068796;28;20512;-78
2023/07/09 01:37:26;;;;;;;6.03;3.40;;;;;;;14.19;100.00;93543.59;5068330;28;20506;-78
2023/07/09 01:39:53;;;;;;;5.53;2.97;;;;;;;14.17;100.00;93551.59;5069331;28;20127;-78
2023/07/09 01:42:21;;;;;;;4.70;2.95;;;;;;;13.94;100.00;93519.56;5083700;28;20085;-78
2023/07/09 01:44:50;;;;;;;4.50;3.10;;;;;;;14.05;100.00;93550.78;5079356;28;20124;-77
2023/07/09 01:47:17;;;;;;;5.47;3.35;;;;;;;14.05;100.00;93546.41;5068498;28;20080;-77
2023/07/09 01:49:46;;;;;;;4.35;3.00;;;;;;;14.04;100.00;93550.00;5086142;28;20044;-77
2023/07/09 01:52:16;;;;;;;6.45;3.28;;;;;;;13.86;100.00;93549.06;5086458;28;20044;-78
2023/07/09 01:54:46;;;;;;;4.18;3.00;;;;;;;13.94;100.00;93554.94;5072824;28;20414;-78
2023/07/09 01:57:19;;;;;;;4.90;3.28;;;;;;;13.64;100.00;93522.97;5086582;28;20044;-78
2023/07/09 01:59:46;;;;;;;5.93;3.28;;;;;;;13.70;100.00;93536.81;5069251;28;20044;-78
2023/07/09 02:02:18;;;;;;;4.93;3.22;;;;;;;13.81;100.00;93545.56;5080239;28;20045;-78
2023/07/09 02:04:46;;;;;;;5.20;3.53;;;;;;;13.71;100.00;93539.13;5083805;28;20052;-78
2023/07/09 02:07:13;;;;;;;7.43;3.55;;;;;;;13.83;100.00;93546.94;5087217;28;20048;-78
2023/07/09 02:09:39;;;;;;;4.93;3.08;;;;;;;13.82;100.00;93553.09;5079041;28;20048;-78
2023/07/09 02:12:08;;;;;;;6.28;3.63;;;;;;;13.81;100.00;93556.69;5068097;28;20114;-78
2023/07/09 02:14:35;;;;;;;5.70;3.60;;;;;;;13.79;100.00;93553.53;5073873;28;20501;-78
2023/07/09 02:17:02;;;;;;;5.32;3.40;;;;;;;13.65;100.00;93540.03;5071493;28;20048;-78
2023/07/09 02:19:29;;;;;;;5.13;3.50;;;;;;;13.77;100.00;93560.72;5067868;28;20049;-78
2023/07/09 02:21:56;;;;;;;5.93;3.53;;;;;;;13.71;100.00;93553.84;5069209;28;20514;-78
2023/07/09 02:24:24;;;;;;;5.53;3.63;;;;;;;13.69;100.00;93554.06;5082647;28;20037;-78
2023/07/09 02:26:51;;;;;;;6.10;3.55;;;;;;;13.58;100.00;93544.50;5071147;28;20048;-78
2023/07/09 02:29:19;;;;;;;4.72;3.33;;;;;;;13.61;100.00;93557.75;5067934;28;20090;-78
2023/07/09 02:31:46;;;;;;;4.78;3.25;;;;;;;13.59;100.00;93566.72;5072915;28;20100;-78
2023/07/09 02:34:13;;;;;;;5.68;3.25;;;;;;;13.54;100.00;93564.00;5070132;28;20052;-78
2023/07/09 02:36:42;;;;;;;4.05;3.10;;;;;;;13.46;100.00;93553.00;5081622;28;20048;-77
2023/07/09 02:39:10;;;;;;;4.75;2.95;;;;;;;13.57;100.00;93569.50;5081186;28;20098;-79
2023/07/09 02:41:37;;;;;;;4.70;3.30;;;;;;;13.56;100.00;93573.09;5073889;28;20051;-79
2023/07/09 02:44:04;;;;;;;5.53;3.30;;;;;;;13.52;100.00;93564.22;5067986;28;20044;-79
2023/07/09 02:46:32;;;;;;;5.60;3.33;;;;;;;13.43;100.00;93568.88;5067947;28;20044;-78
2023/07/09 02:48:59;;;;;;;5.65;3.30;;;;;;;13.49;100.00;93577.56;5071273;28;20382;-78
2023/07/09 02:51:26;;;;;;;6.03;3.33;;;;;;;13.42;100.00;93576.84;5070870;28;20407;-77
2023/07/09 02:53:54;;;;;;;5.50;3.90;;;;;;;13.45;100.00;93576.41;5066854;28;20059;-78
2023/07/09 02:56:20;;;;;;;5.68;3.20;;;;;;;13.40;100.00;93573.69;5075041;28;20044;-79
2023/07/09 02:58:48;;;;;;;5.05;2.78;;;;;;;13.41;100.00;93583.00;5076596;28;20098;-78
2023/07/09 03:01:15;;;;;;;7.03;3.35;;;;;;;13.46;100.00;93586.53;5072867;28;20064;-78
2023/07/09 03:03:43;;;;;;;8.50;3.72;;;;;;;13.39;100.00;93579.84;5072635;28;20048;-78
2023/07/09 03:06:10;;;;;;;5.47;3.10;;;;;;;13.42;100.00;93592.34;5070420;28;20044;-78
2023/07/09 03:08:37;;;;;;;5.88;3.30;;;;;;;13.44;100.00;93591.09;5072069;28;20125;-78
2023/07/09 03:11:10;;;;;;;6.32;3.50;;;;;;;13.36;100.00;93587.03;5071019;28;20543;-78
2023/07/09 03:13:37;;;;;;;4.57;3.17;;;;;;;13.37;100.00;93587.81;5081371;28;20044;-78
2023/07/09 03:16:04;;;;;;;8.15;3.45;;;;;;;13.35;100.00;93587.25;5079407;28;20040;-78
2023/07/09 03:18:31;;;;;;;5.32;2.95;;;;;;;13.40;100.00;93589.97;5068661;28;20044;-78
2023/07/09 03:20:59;;;;;;;6.65;3.60;;;;;;;13.42;100.00;93598.25;5068228;28;20056;-78
2023/07/09 03:23:26;;;;;;;4.68;3.67;;;;;;;13.39;100.00;93596.13;5070622;28;20052;-78
2023/07/09 03:25:53;;;;;;;7.75;3.25;;;;;;;13.40;100.00;93602.88;5070987;28;20053;-78
2023/07/09 03:28:20;;;;;;;4.75;2.95;;;;;;;13.37;100.00;93605.88;5068346;28;20044;-78
2023/07/09 03:30:48;;;;;;;4.63;3.08;;;;;;;13.35;100.00;93608.69;5083635;28;20085;-78
2023/07/09 03:33:17;;;;;;;6.25;3.40;;;;;;;13.33;100.00;93604.75;5068043;28;20048;-78
2023/07/09 03:35:44;;;;;;;5.05;3.05;;;;;;;13.33;100.00;93607.31;5068279;28;20094;-77
2023/07/09 03:38:12;;;;;;;5.55;3.20;;;;;;;13.31;100.00;93596.41;5068954;28;20044;-77
2023/07/09 03:40:39;;;;;;;4.38;3.22;;;;;;;13.33;100.00;93599.59;5069069;28;20094;-77
2023/07/09 03:43:07;;;;;;;4.68;3.08;;;;;;;13.28;100.00;93595.06;5070857;28;20098;-78
2023/07/09 03:45:36;;;;;;;5.43;3.20;;;;;;;13.29;100.00;93591.47;5075692;28;20090;-78
2023/07/09 03:48:03;;;;;;;6.88;4.18;;;;;;;13.40;100.00;93602.88;5070430;28;20052;-77
2023/07/09 03:50:29;;;;;;;6.13;3.40;;;;;;;13.42;100.00;93606.00;5069700;28;20099;-77
2023/07/09 03:52:56;;;;;;;5.85;3.78;;;;;;;13.47;100.00;93605.41;5067523;28;20051;-77
2023/07/09 03:55:26;;;;;;;5.57;3.50;;;;;;;13.48;100.00;93604.38;5070211;28;20656;-77
2023/07/09 03:57:53;;;;;;;8.80;4.13;;;;;;;13.46;100.00;93589.13;5073273;28;20109;-77
2023/07/09 04:00:19;;;;;;;7.80;3.78;;;;;;;13.56;100.00;93605.88;5071997;28;20607;-77
2023/07/09 04:02:46;;;;;;;6.68;3.85;;;;;;;13.59;100.00;93605.44;5078073;28;20093;-77
2023/07/09 04:05:13;;;;;;;6.47;3.88;;;;;;;13.61;100.00;93613.75;5069326;28;20053;-77
2023/07/09 04:07:40;;;;;;;5.35;3.20;;;;;;;13.65;100.00;93612.31;5076037;28;20048;-77
2023/07/09 04:10:08;;;;;;;4.85;3.05;;;;;;;13.53;100.00;93590.81;5073742;28;20060;-77
2023/07/09 04:12:36;;;;;;;4.57;3.20;;;;;;;13.69;100.00;93610.88;5070814;28;20048;-77
2023/07/09 04:15:04;;;;;;;5.85;3.30;;;;;;;13.80;100.00;93613.72;5070951;28;20053;-77
2023/07/09 04:17:30;;;;;;;6.50;3.50;;;;;;;13.82;100.00;93611.69;5071124;28;20044;-77
2023/07/09 04:19:57;;;;;;;5.85;3.60;;;;;;;13.83;100.00;93615.84;5088787;28;20048;-77
2023/07/09 04:22:24;;;;;;;6.65;3.30;;;;;;;13.81;100.00;93610.91;5080141;28;20200;-77
2023/07/09 04:24:52;;;;;;;5.88;3.78;;;;;;;13.93;100.00;93617.91;5075816;28;20102;-78
2023/07/09 04:27:18;;;;;;;6.88;3.75;;;;;;;14.03;100.00;93621.53;5070630;28;20079;-78
2023/07/09 04:29:48;;;;;;;10.70;4.40;;;;;;;14.01;100.00;93615.81;5072427;28;20105;-78
2023/07/09 04:32:15;;;;;;;4.97;3.40;;;;;;;14.08;100.00;93618.31;5078802;28;20518;-77
2023/07/09 04:34:43;;;;;;;5.13;3.38;;;;;;;14.14;100.00;93612.25;5081704;28;20094;-78
2023/07/09 04:37:12;;;;;;;6.85;3.85;;;;;;;14.22;100.00;93613.72;5078521;28;20109;-77
2023/07/09 04:39:39;;;;;;;4.88;3.90;;;;;;;14.25;100.00;93623.59;5077552;28;20512;-77
2023/07/09 04:42:08;;;;;;;8.02;3.65;;;;;;;14.30;100.00;93610.81;5081643;28;20626;-77
2023/07/09 04:44:35;;;;;;;4.30;3.17;;;;;;;14.48;100.00;93616.88;5078374;28;20055;-77
2023/07/09 04:47:03;;;;;;;5.82;3.58;;;;;;;14.51;100.00;93626.78;5077913;28;20045;-78
2023/07/09 04:49:30;;;;;;;5.00;3.50;;;;;;;14.58;100.00;93616.31;5070029;28;20040;-77
2023/07/09 04:51:58;;;;;;;7.25;3.92;;;;;;;14.68;100.00;93611.38;5071742;28;20052;-78
2023/07/09 04:54:25;;;;;;;6.72;3.67;;;;;;;14.77;100.00;93621.44;5069191;28;20052;-77
2023/07/09 04:56:52;;;;;;;5.95;3.22;;;;;;;14.82;100.00;93621.56;5070243;28;20432;-77
2023/07/09 04:59:19;;;;;;;5.85;3.38;;;;;;;14.84;100.00;93611.75;5072966;28;20703;-77
2023/07/09 05:01:46;;;;;;;6.65;4.10;;;;;;;15.04;100.00;93624.34;5084647;28;20505;-77
2023/07/09 05:04:14;;;;;;;7.40;3.67;;;;;;;15.08;100.00;93630.63;5072205;28;20040;-77
2023/07/09 05:06:41;;;;;;;7.07;3.30;;;;;;;15.13;100.00;93622.19;5070514;28;20543;-78
2023/07/09 05:09:08;;;;;;;7.75;3.50;;;;;;;15.25;100.00;93636.91;5075758;28;20122;-77
2023/07/09 05:11:37;;;;;;;6.43;3.70;;;;;;;15.31;100.00;93621.25;5069835;28;20048;-78
2023/07/09 05:14:04;;;;;;;5.35;3.53;;;;;;;15.45;100.00;93633.94;5083089;28;20048;-78
2023/07/09 05:16:30;;;;;;;7.07;3.80;;;;;;;15.48;100.00;93628.31;5085472;28;20513;-79
2023/07/09 05:18:57;;;;;;;6.70;3.30;;;;;;;15.59;100.00;93629.28;5073527;28;20044;-79
2023/07/09 05:21:25;;;;;;;5.53;3.20;;;;;;;15.70;100.00;93633.63;5069072;28;20118;-78
2023/07/09 05:23:52;;;;;;;5.80;3.95;;;;;;;15.78;100.00;93632.47;5069594;28;20044;-78
2023/07/09 05:26:19;;;;;;;5.65;3.55;;;;;;;15.92;100.00;93637.41;5070863;28;20052;-77
2023/07/09 05:28:45;;;;;;;6.03;3.80;;;;;;;15.99;100.00;93630.28;5083704;28;20592;-77
2023/07/09 05:31:12;;;;;;;6.15;3.60;;;;;;;16.22;100.00;93631.97;5082572;28;20094;-77
2023/07/09 05:33:39;;;;;;;5.40;3.83;;;;;;;16.29;100.00;93606.69;5072134;28;20814;-77
2023/07/09 05:36:07;;;;;;;5.57;3.55;;;;;;;16.64;100.00;93637.78;5068993;28;20114;-77
2023/07/09 05:38:35;;;;;;;7.20;3.50;;;;;;;16.84;100.00;93632.13;5069740;28;20752;-77
2023/07/09 05:41:03;;;;;;;5.55;3.38;;;;;;;17.06;100.00;93627.00;5076543;28;20569;-78
2023/07/09 05:43:30;;;;;;;4.07;3.03;;;;;;;17.31;100.00;93627.59;5078484;28;20044;-78
2023/07/09 05:45:57;;;;;;;7.72;3.40;;;;;;;17.55;100.00;93635.88;5073459;28;20098;-78
2023/07/09 05:48:24;;;;;;;6.72;3.75;;;;;;;17.85;100.00;93639.06;5081997;28;20040;-78
2023/07/09 05:50:55;;;;;;;4.90;3.05;;;;;;;18.05;100.00;93633.28;5069252;28;20040;-78
2023/07/09 05:53:21;;;;;;;8.30;3.80;;;;;;;18.34;100.00;93637.47;5080473;28;20044;-78
2023/07/09 05:55:50;;;;;;;4.55;2.80;;;;;;;18.66;99.51;93642.66;5075316;28;20126;-78
2023/07/09 05:58:16;;;;;;;3.72;2.42;;;;;;;18.94;90.20;93645.97;5073299;28;20045;-78
2023/07/09 06:00:43;;;;;;;9.35;3.38;;;;;;;19.14;87.56;93647.16;5075064;28;20048;-79
2023/07/09 06:03:10;;;;;;;4.53;2.33;;;;;;;19.43;83.99;93654.59;5079411;28;20040;-78
2023/07/09 06:05:37;;;;;;;4.45;2.88;;;;;;;19.68;88.62;93647.94;5075341;28;20554;-79
2023/07/09 06:08:05;;;;;;;4.35;2.15;;;;;;;19.88;80.99;93657.63;5071076;28;20052;-77
2023/07/09 06:10:32;;;;;;;4.10;2.35;;;;;;;20.19;74.25;93658.75;5074143;28;20044;-77
2023/07/09 06:13:00;;;;;;;3.17;2.10;;;;;;;20.35;78.92;93646.50;5072676;28;20086;-78
2023/07/09 06:15:27;;;;;;;3.63;2.17;;;;;;;20.60;77.55;93650.19;5070957;28;20048;-78
2023/07/09 06:17:53;;;;;;;7.65;2.38;;;;;;;20.70;75.11;93632.69;5073732;28;20098;-78
2023/07/09 06:20:20;;;;;;;3.08;1.85;;;;;;;21.03;75.92;93650.69;5076049;28;20052;-78
2023/07/09 06:22:47;;;;;;;6.75;2.30;;;;;;;21.33;74.73;93646.44;5070161;28;20048;-78
2023/07/09 06:25:14;;;;;;;3.53;2.03;;;;;;;21.71;71.04;93643.44;5077990;28;20044;-78
2023/07/09 06:27:40;;;;;;;3.47;2.05;;;;;;;22.05;72.59;93635.94;5073841;28;20036;-78
2023/07/09 06:30:09;;;;;;;5.28;1.90;;;;;;;22.43;69.98;93641.44;5073116;28;20044;-79
2023/07/09 06:32:36;;;;;;;4.13;2.20;;;;;;;22.78;69.65;93650.09;5071658;28;20059;-80
2023/07/09 06:35:03;;;;;;;6.97;3.22;;;;;;;22.79;66.72;93651.69;5070349;28;20051;-78
2023/07/09 06:37:30;;;;;;;6.15;2.40;;;;;;;23.07;69.36;93640.66;5070390;28;20055;-79
2023/07/09 06:39:57;;;;;;;7.45;2.53;;;;;;;23.32;66.80;93644.91;5069516;28;20379;-78
2023/07/09 06:42:23;;;;;;;3.92;2.30;;;;;;;23.07;67.69;93643.28;5069651;28;20059;-78
2023/07/09 06:44:50;;;;;;;5.75;2.78;;;;;;;23.39;65.74;93654.25;5070285;28;20044;-79
2023/07/09 06:47:18;;;;;;;7.32;3.03;;;;;;;23.41;62.41;93647.69;5070242;28;20043;-79
2023/07/09 06:49:45;;;;;;;3.85;2.30;;;;;;;23.72;65.67;93649.16;5069346;28;20126;-78
2023/07/09 06:52:12;;;;;;;4.82;2.10;;;;;;;23.91;63.51;93646.56;5069352;28;20152;-78
2023/07/09 06:54:38;;;;;;;4.18;2.17;;;;;;;24.00;63.78;93642.25;5069863;28;20068;-78
2023/07/09 06:57:05;;;;;;;3.95;2.08;;;;;;;23.93;65.38;93639.16;5071280;28;20040;-78
2023/07/09 06:59:32;;;;;;;4.65;2.38;;;;;;;24.12;62.67;93633.19;5070590;28;20102;-80
2023/07/09 07:01:59;;;;;;;4.65;2.10;;;;;;;23.85;61.57;93650.31;5074507;28;20043;-79
2023/07/09 07:04:28;;;;;;;6.20;2.10;;;;;;;23.44;62.35;93643.72;5075246;28;20052;-78
2023/07/09 07:06:56;;;;;;;3.05;1.90;;;;;;;23.11;66.63;93646.94;5078343;28;20048;-78
2023/07/09 07:09:23;;;;;;;4.60;2.67;;;;;;;23.28;63.91;93638.63;5075698;28;20052;-78
2023/07/09 07:11:51;;;;;;;6.15;2.35;;;;;;;23.55;66.89;93639.16;5078041;28;20082;-78
2023/07/09 07:14:19;;;;;;;7.45;2.25;;;;;;;23.43;66.63;93637.72;5079750;28;20044;-78
2023/07/09 07:16:45;;;;;;;4.03;2.13;;;;;;;23.74;65.71;93636.53;5074735;28;20041;-78
2023/07/09 07:19:12;;;;;;;5.20;2.42;;;;;;;23.79;65.62;93633.84;5077884;28;20040;-80
2023/07/09 07:21:40;;;;;;;5.78;2.75;;;;;;;24.06;63.32;93637.69;5077176;28;21326;-79
2023/07/09 07:24:07;;;;;;;5.22;2.10;;;;;;;24.07;64.04;93618.25;5078436;28;20493;-78
2023/07/09 07:26:34;;;;;;;4.43;2.33;;;;;;;24.25;61.20;93634.31;5077036;28;20052;-79
2023/07/09 07:29:01;;;;;;;3.65;1.85;;;;;;;24.48;61.61;93631.88;5079940;28;20040;-79
2023/07/09 07:31:28;;;;;;;7.15;2.22;;;;;;;24.61;62.11;93628.50;5077278;28;20044;-79
2023/07/09 07:33:54;;;;;;;6.82;2.00;;;;;;;24.97;62.62;93623.72;5076850;28;20045;-79
2023/07/09 07:36:21;;;;;;;5.55;2.25;;;;;;;25.09;61.65;93624.81;5076718;28;20098;-79
2023/07/09 07:38:49;;;;;;;4.78;2.40;;;;;;;24.88;59.63;93629.69;5076354;28;20095;-79
2023/07/09 07:41:16;;;;;;;4.45;2.35;;;;;;;24.65;61.44;93621.63;5077419;28;20386;-78
2023/07/09 07:43:43;;;;;;;6.45;2.03;;;;;;;24.63;59.96;93592.22;5078540;28;20098;-79
2023/07/09 07:46:09;;;;;;;4.65;1.60;;;;;;;24.76;60.94;93624.84;5083589;28;20048;-79
2023/07/09 07:48:36;;;;;;;2.90;1.67;;;;;;;25.00;60.80;93610.03;5081077;28;20106;-79
2023/07/09 07:51:04;;;;;;;4.15;2.40;;;;;;;25.19;59.78;93625.72;5082820;28;20036;-79
2023/07/09 07:53:31;;;;;;;6.35;2.17;;;;;;;24.91;59.75;93629.06;5081766;28;20048;-79
2023/07/09 07:56:01;;;;;;;3.83;1.88;;;;;;;25.16;58.81;93627.06;5081646;28;20109;-79
2023/07/09 07:58:28;;;;;;;3.80;1.95;;;;;;;25.11;61.62;93624.53;5082096;28;20052;-79
2023/07/09 08:00:58;;;;;;;5.07;1.92;;;;;;;25.00;60.49;93623.97;5081938;28;21179;-79
2023/07/09 08:03:26;;;;;;;3.97;2.47;;;;;;;25.13;59.42;93632.91;5080832;28;20885;-79
2023/07/09 08:05:53;;;;;;;2.47;1.30;;;;;;;25.21;58.00;93610.41;5083055;28;20056;-80
2023/07/09 08:08:20;;;;;;;3.03;1.92;;;;;;;25.23;59.54;93618.81;5082711;28;20463;-79
2023/07/09 08:10:47;;;;;;;6.18;1.80;;;;;;;25.04;54.85;93630.16;5080768;28;20532;-79
2023/07/09 08:13:15;;;;;;;2.92;1.60;;;;;;;24.72;58.04;93623.09;5082857;28;20044;-79
2023/07/09 08:15:42;;;;;;;2.92;1.45;;;;;;;25.22;58.49;93617.22;5080495;28;20056;-78
2023/07/09 08:18:09;;;;;;;2.97;1.30;;;;;;;25.65;56.16;93615.41;5083779;28;20049;-80
2023/07/09 08:20:36;;;;;;;2.58;1.30;;;;;;;25.84;56.88;93610.00;5080323;28;20053;-79
2023/07/09 08:23:03;;;;;;;3.70;1.58;;;;;;;25.21;53.91;93619.09;5082643;28;20048;-81
2023/07/09 08:25:30;;;;;;;3.15;1.70;;;;;;;24.41;57.49;93609.41;5079904;28;20465;-78
2023/07/09 08:27:56;;;;;;;3.53;1.80;;;;;;;24.57;57.56;93596.00;5081681;28;20044;-78
2023/07/09 08:30:24;;;;;;;3.53;1.85;;;;;;;24.39;60.13;93608.91;5081824;28;20530;-78
2023/07/09 08:32:51;;;;;;;5.00;1.60;;;;;;;24.91;57.88;93602.03;5084015;28;20744;-79
2023/07/09 08:35:18;;;;;;;3.65;1.85;;;;;;;24.42;56.69;93604.91;5083725;28;20044;-78
2023/07/09 08:37:45;;;;;;;3.67;1.65;;;;;;;24.92;56.09;93608.84;5080024;28;20044;-79
2023/07/09 08:40:15;;;;;;;3.42;1.55;;;;;;;25.20;58.84;93608.88;5081696;28;20051;-79
2023/07/09 08:42:45;;;;;;;3.40;1.70;;;;;;;25.59;54.75;93612.88;5076579;28;20497;-80
2023/07/09 08:45:25;;;;;;;4.13;1.70;;;;;;;25.56;56.22;93610.06;5081782;28;20413;-78
2023/07/09 08:48:05;;;;;;;3.30;1.83;;;;;;;25.22;55.69;93575.97;5078237;28;20102;-80
2023/07/09 08:50:39;;;;;;;4.35;1.98;;;;;;;25.28;54.38;93578.50;5077986;28;20044;-80
2023/07/09 08:53:13;;;;;;;9.00;3.03;;;;;;;25.54;54.74;93607.72;5080768;28;20089;-79
2023/07/09 08:55:41;;;;;;;4.10;1.63;;;;;;;25.80;56.25;93606.41;5076126;28;20043;-80
2023/07/09 08:58:14;;;;;;;2.65;1.70;;;;;;;26.23;52.90;93608.63;5078566;28;20040;-80
2023/07/09 09:00:45;;;;;;;3.33;2.08;;;;;;;26.64;54.21;93599.00;5080466;28;20043;-79
2023/07/09 09:03:17;;;;;;;3.33;2.15;;;;;;;26.43;53.54;93606.63;5082356;28;20448;-79
2023/07/09 09:05:48;;;;;;;2.90;1.67;;;;;;;26.72;54.07;93596.69;5078673;28;20122;-79
2023/07/09 09:08:28;;;;;;;4.00;2.30;;;;;;;27.09;53.54;93605.28;5080373;28;20052;-80
2023/07/09 09:11:06;;;;;;;2.95;1.50;;;;;;;27.30;49.83;93605.50;5077617;28;20146;-80
2023/07/09 09:13:34;;;;;;;4.20;1.88;;;;;;;26.90;52.78;93598.31;5078455;28;20040;-80
2023/07/09 09:16:10;;;;;;;3.88;2.10;;;;;;;27.30;54.21;93613.41;5078521;28;20044;-80
2023/07/09 09:18:43;;;;;;;4.05;2.50;;;;;;;27.74;53.82;93592.44;5078164;28;20040;-81
2023/07/09 09:21:17;;;;;;;4.63;2.22;;;;;;;27.51;49.78;93618.13;5079865;28;20052;-80
2023/07/09 09:23:49;;;;;;;3.35;1.88;;;;;;;27.49;49.11;93601.81;5080584;28;20044;-79
2023/07/09 09:26:19;;;;;;;4.85;1.92;;;;;;;27.59;49.86;93598.16;5080244;28;20052;-80
2023/07/09 09:28:46;;;;;;;2.85;1.50;;;;;;;28.05;50.69;93601.28;5078954;28;20377;-80
2023/07/09 09:31:13;;;;;;;2.97;1.50;;;;;;;28.29;47.30;93602.72;5077611;28;20045;-79
2023/07/09 09:33:44;;;;;;;7.88;2.08;;;;;;;27.62;48.64;93602.81;5080352;28;20048;-79
2023/07/09 09:36:17;;;;;;;3.47;1.90;;;;;;;27.69;51.81;93605.00;5078976;28;20044;-79
2023/07/09 09:38:44;;;;;;;2.47;1.50;;;;;;;27.84;48.58;93611.69;5082494;28;20077;-79
2023/07/09 09:41:16;;;;;;;4.78;1.70;;;;;;;26.63;48.18;93602.72;5079702;28;20124;-80
2023/07/09 09:43:45;;;;;;;2.97;1.67;;;;;;;26.80;52.44;93598.63;5075982;28;20036;-79
2023/07/09 09:46:18;;;;;;;3.05;1.67;;;;;;;27.32;50.79;93592.00;5080045;28;20049;-79
2023/07/09 09:48:48;;;;;;;3.92;1.75;;;;;;;27.72;49.46;93594.59;5074398;28;20459;-79
2023/07/09 09:51:16;;;;;;;3.80;1.90;;;;;;;26.80;51.13;93580.94;5083620;28;20048;-79
2023/07/09 09:53:48;;;;;;;2.90;1.58;;;;;;;26.91;49.44;93578.03;5075194;28;20056;-79
2023/07/09 09:56:19;;;;;;;3.65;1.98;;;;;;;27.05;51.32;93575.31;5071034;28;20460;-80
2023/07/09 09:58:46;;;;;;;3.42;2.05;;;;;;;27.28;47.08;93570.75;5072894;28;20569;-79
2023/07/09 10:01:16;;;;;;;2.90;1.80;;;;;;;27.19;48.68;93568.09;5068187;28;20055;-79
2023/07/09 10:03:44;;;;;;;3.10;1.40;;;;;;;27.59;48.39;93574.41;5068938;28;20487;-80
2023/07/09 10:06:17;;;;;;;3.05;1.65;;;;;;;27.98;47.64;93575.38;5082782;28;20073;-80
2023/07/09 10:08:52;;;;;;;3.08;1.63;;;;;;;27.93;45.90;93578.16;5073983;28;20048;-79
2023/07/09 10:11:26;;;;;;;3.42;1.52;;;;;;;27.55;47.63;93578.72;5068655;28;20449;-79
2023/07/09 10:14:03;;;;;;;4.15;1.60;;;;;;;28.11;46.62;93570.22;5069306;28;20048;-79
2023/07/09 10:16:36;;;;;;;4.57;1.70;;;;;;;28.50;47.54;93565.06;5068529;28;20056;-79
2023/07/09 10:19:13;;;;;;;2.70;1.52;;;;;;;27.00;46.80;93560.44;5068457;28;20448;-79
2023/07/09 10:21:47;;;;;;;2.75;1.50;;;;;;;26.82;48.86;93556.91;5068333;28;20105;-79
2023/07/09 10:24:31;;;;;;;2.90;1.48;;;;;;;27.38;47.76;93566.25;5076762;28;20045;-81
2023/07/09 10:27:08;;;;;;;4.93;1.52;;;;;;;28.08;51.73;93563.72;5069930;28;20427;-80
2023/07/09 10:29:56;;;;;;;4.45;1.63;;;;;;;28.84;48.81;93549.44;5070119;28;20044;-80
2023/07/09 10:32:35;;;;;;;3.08;1.40;;;;;;;29.36;45.10;93558.22;5065932;28;20051;-80
2023/07/09 10:35:08;;;;;;;2.33;1.35;;;;;;;29.56;46.40;93559.38;5068076;28;20102;-81
2023/07/09 10:38:02;;;;;;;2.92;1.63;;;;;;;29.57;43.19;93556.41;5068155;28;20093;-80
2023/07/09 10:40:34;;;;;;;2.63;1.63;;;;;;;28.31;44.76;93550.34;5076520;28;20098;-79
2023/07/09 10:43:03;;;;;;;3.33;2.05;;;;;;;28.71;43.54;93549.31;5068778;28;20620;-80
2023/07/09 10:45:45;;;;;;;3.30;1.45;;;;;;;29.11;44.95;93548.25;5082806;28;20048;-80
2023/07/09 10:48:17;;;;;;;3.88;1.80;;;;;;;29.57;45.04;93547.72;5071555;28;20088;-80
2023/07/09 10:50:48;;;;;;;2.85;1.55;;;;;;;28.98;44.97;93550.03;5068508;28;20054;-79
2023/07/09 10:53:29;;;;;;;2.75;1.70;;;;;;;29.19;43.47;93547.44;5072275;28;20125;-80
2023/07/09 10:56:00;;;;;;;3.78;1.67;;;;;;;29.01;45.64;93544.09;5071346;28;20059;-79
2023/07/09 10:58:34;;;;;;;3.47;1.85;;;;;;;28.93;44.23;93555.50;5076391;28;20445;-79
2023/07/09 11:01:01;;;;;;;4.63;2.03;;;;;;;29.05;44.53;93555.59;5071485;28;20044;-80
2023/07/09 11:03:39;;;;;;;3.33;1.50;;;;;;;28.25;43.23;93554.25;5071209;28;20048;-78
2023/07/09 11:06:13;;;;;;;2.33;1.38;;;;;;;28.82;45.97;93544.44;5071607;28;20062;-79
2023/07/09 11:08:42;;;;;;;7.82;3.03;;;;;;;29.08;44.22;93525.84;5071675;28;20083;-79
2023/07/09 11:11:16;;;;;;;3.85;1.60;;;;;;;29.31;43.39;93545.97;5071391;28;20429;-79
2023/07/09 11:13:46;;;;;;;3.00;1.40;;;;;;;28.75;44.90;93533.59;5071632;28;20041;-79
2023/07/09 11:16:17;;;;;;;3.15;1.83;;;;;;;29.37;46.02;93538.59;5071723;28;20045;-78
2023/07/09 11:18:56;;;;;;;5.00;1.80;;;;;;;29.85;43.45;93533.97;5071374;28;20101;-79
2023/07/09 11:21:22;;;;;;;5.72;1.98;;;;;;;29.16;43.13;93526.13;5071072;28;20049;-79
2023/07/09 11:23:53;;;;;;;2.72;1.33;;;;;;;29.23;44.21;93520.31;5071633;28;20048;-79
2023/07/09 11:26:26;;;;;;;5.22;1.65;;;;;;;29.58;44.90;93536.03;5071227;28;20044;-79
2023/07/09 11:28:54;;;;;;;3.08;1.33;;;;;;;29.79;43.89;93532.59;5071607;28;20045;-79
2023/07/09 11:31:25;;;;;;;3.22;1.65;;;;;;;29.74;43.04;93538.84;5071491;28;20051;-79
2023/07/09 11:34:03;;;;;;;3.53;1.45;;;;;;;29.80;43.02;93534.91;5071437;28;20449;-79
2023/07/09 11:36:31;;;;;;;4.13;1.45;;;;;;;29.63;43.65;93521.81;5071356;28;20125;-79
2023/07/09 11:38:59;;;;;;;2.70;1.42;;;;;;;29.56;41.75;93517.81;5071518;28;20123;-79